createdAt,value
2019-01-21T00:00:00.586Z,58.73
2019-01-21T00:02:28.970Z,54.27
2019-01-21T00:05:00.592Z,46.47
2019-01-21T00:07:36.898Z,44.07
2019-01-21T00:15:58.272Z,38.63
2019-01-21T00:21:35.018Z,38.67
2019-01-21T00:24:04.259Z,46.93
2019-01-21T00:26:34.013Z,45.27
2019-01-21T00:29:04.497Z,47.10
2019-01-21T00:31:34.268Z,44.00
2019-01-21T00:34:05.963Z,44.73
2019-01-21T00:36:52.119Z,43.33
2019-01-21T00:39:23.996Z,41.60
2019-01-21T00:41:57.674Z,38.77
2019-01-21T00:53:35.174Z,40.00
2019-01-21T01:07:39.367Z,37.53
2019-01-21T01:10:19.712Z,41.23
2019-01-21T01:24:58.730Z,32.77
2019-01-21T01:27:41.214Z,33.07
2019-01-21T01:30:16.907Z,35.27
2019-01-21T01:32:54.974Z,36.90
2019-01-21T01:35:27.802Z,39.37
2019-01-21T01:38:06.844Z,41.10
2019-01-21T01:40:36.114Z,39.47
2019-01-21T02:09:28.729Z,38.10
2019-01-21T02:18:19.160Z,31.57
2019-01-21T02:20:48.378Z,32.40
2019-01-21T02:23:17.517Z,31.77
2019-01-21T02:25:46.632Z,33.83
2019-01-21T02:31:30.182Z,38.83
2019-01-21T02:34:04.940Z,36.77
2019-01-21T02:36:52.483Z,38.40
2019-01-21T02:39:28.113Z,33.67
2019-01-21T02:48:06.861Z,30.87
2019-01-21T02:53:37.708Z,47.08
2019-01-21T02:56:16.592Z,34.90
2019-01-21T03:01:51.777Z,30.30
2019-01-21T03:04:25.992Z,27.60
2019-01-21T03:06:56.412Z,31.13
2019-01-21T03:09:27.349Z,31.80
2019-01-21T03:12:02.310Z,32.57
2019-01-21T03:14:35.220Z,32.77
2019-01-21T03:17:06.178Z,31.27
2019-01-21T03:19:36.220Z,32.23
2019-01-21T03:22:15.413Z,29.60
2019-01-21T03:24:44.563Z,26.67
2019-01-21T03:27:19.562Z,25.23
2019-01-21T03:29:50.465Z,24.63
2019-01-21T03:32:29.238Z,24.53
2019-01-21T03:35:01.095Z,24.87
2019-01-21T03:37:35.650Z,24.00
2019-01-21T03:40:12.265Z,23.60
2019-01-21T03:42:47.927Z,25.17
2019-01-21T03:45:26.838Z,25.83
2019-01-21T03:47:56.028Z,23.97
2019-01-21T03:50:27.930Z,23.13
2019-01-21T03:53:01.576Z,21.73
2019-01-21T03:55:30.660Z,22.40
2019-01-21T03:58:00.728Z,22.40
2019-01-21T04:00:30.847Z,24.53
2019-01-21T04:03:03.482Z,24.83
2019-01-21T04:05:33.404Z,29.17
2019-01-21T04:08:06.478Z,27.93
2019-01-21T04:10:38.314Z,28.40
2019-01-21T04:13:09.393Z,27.63
2019-01-21T04:15:38.563Z,40.67
2019-01-21T04:18:10.667Z,36.93
2019-01-21T04:20:48.339Z,31.70
2019-01-21T04:23:20.973Z,28.57
2019-01-21T04:25:54.919Z,25.67
2019-01-21T04:28:24.035Z,25.50
2019-01-21T04:31:03.681Z,23.90
2019-01-21T04:33:50.975Z,38.67
2019-01-21T04:36:23.536Z,34.07
2019-01-21T04:38:56.372Z,48.60
2019-01-21T04:41:27.274Z,88.10
2019-01-21T04:43:57.895Z,69.67
2019-01-21T04:46:31.705Z,42.53
2019-01-21T04:49:06.571Z,33.57
2019-01-21T04:51:39.373Z,31.70
2019-01-21T04:54:12.329Z,30.57
2019-01-21T04:56:44.400Z,28.33
2019-01-21T04:59:29.566Z,24.90
2019-01-21T05:02:11.146Z,21.03
2019-01-21T05:04:44.827Z,26.00
2019-01-21T05:07:14.755Z,25.40
2019-01-21T05:09:44.633Z,27.60
2019-01-21T05:12:13.727Z,27.30
2019-01-21T05:14:48.669Z,22.23
2019-01-21T05:17:28.385Z,28.90
2019-01-21T05:20:09.421Z,35.77
2019-01-21T05:22:39.082Z,32.23
2019-01-21T05:25:11.953Z,44.47
2019-01-21T05:27:41.842Z,30.30
2019-01-21T05:30:11.721Z,42.87
2019-01-21T05:32:40.765Z,27.43
2019-01-21T05:35:18.560Z,31.53
2019-01-21T05:37:49.342Z,23.17
2019-01-21T05:40:25.088Z,23.20
2019-01-21T05:42:57.935Z,29.93
2019-01-21T05:45:45.409Z,31.13
2019-01-21T05:48:32.918Z,30.23
2019-01-21T05:51:09.564Z,29.30
2019-01-21T05:53:44.205Z,26.30
2019-01-21T05:56:19.210Z,26.63
2019-01-21T05:58:54.205Z,26.00
2019-01-21T06:04:16.204Z,21.50
2019-01-21T06:07:01.104Z,20.53
2019-01-21T06:09:30.904Z,18.70
2019-01-21T06:11:59.966Z,25.37
2019-01-21T06:14:31.756Z,21.93
2019-01-21T06:17:06.628Z,21.20
2019-01-21T06:19:40.233Z,22.63
2019-01-21T06:22:13.942Z,25.17
2019-01-21T06:24:44.663Z,20.30
2019-01-21T06:27:15.065Z,27.80
2019-01-21T06:29:49.008Z,26.47
2019-01-21T06:32:26.561Z,21.87
2019-01-21T06:35:02.282Z,21.50
2019-01-21T06:37:32.194Z,21.00
2019-01-21T06:40:18.428Z,24.53
2019-01-21T06:42:53.375Z,22.77
2019-01-21T06:45:38.506Z,23.87
2019-01-21T06:48:14.744Z,23.13
2019-01-21T06:50:45.662Z,23.43
2019-01-21T06:53:16.283Z,23.80
2019-01-21T06:55:51.105Z,19.40
2019-01-21T06:58:38.831Z,20.93
2019-01-21T07:01:19.827Z,20.73
2019-01-21T07:03:48.921Z,20.33
2019-01-21T07:06:22.960Z,23.13
2019-01-21T07:08:55.946Z,22.23
2019-01-21T07:11:31.379Z,27.50
2019-01-21T07:14:05.381Z,27.17
2019-01-21T07:16:41.214Z,30.53
2019-01-21T07:19:15.913Z,23.13
2019-01-21T07:21:56.772Z,25.27
2019-01-21T07:24:28.637Z,21.83
2019-01-21T07:27:00.464Z,21.13
2019-01-21T07:29:34.426Z,21.87
2019-01-21T07:32:03.663Z,21.17
2019-01-21T07:34:33.587Z,21.53
2019-01-21T07:37:07.226Z,23.53
2019-01-21T07:39:41.851Z,22.93
2019-01-21T07:42:15.763Z,29.07
2019-01-21T07:44:56.665Z,28.47
2019-01-21T07:47:34.752Z,23.93
2019-01-21T07:50:07.792Z,24.93
2019-01-21T07:52:38.698Z,23.53
2019-01-21T07:55:11.317Z,22.87
2019-01-21T07:57:43.981Z,20.43
2019-01-21T08:00:13.875Z,21.57
2019-01-21T08:02:55.601Z,23.37
2019-01-21T08:05:24.655Z,24.00
2019-01-21T08:07:54.511Z,22.33
2019-01-21T08:10:25.521Z,21.60
2019-01-21T08:13:00.138Z,23.37
2019-01-21T08:15:31.901Z,25.17
2019-01-21T08:18:01.858Z,40.47
2019-01-21T08:20:31.895Z,26.17
2019-01-21T08:23:03.090Z,25.67
2019-01-21T08:25:35.938Z,27.37
2019-01-21T08:28:09.667Z,25.20
2019-01-21T08:30:40.367Z,24.23
2019-01-21T08:33:19.098Z,22.73
2019-01-21T08:36:06.901Z,21.20
2019-01-21T08:38:37.066Z,25.13
2019-01-21T08:41:09.565Z,30.87
2019-01-21T08:43:39.444Z,29.97
2019-01-21T08:46:24.339Z,38.23
2019-01-21T08:48:58.997Z,31.33
2019-01-21T08:51:28.038Z,26.33
2019-01-21T08:53:59.042Z,22.13
2019-01-21T08:56:29.980Z,29.07
2019-01-21T08:59:00.575Z,26.27
2019-01-21T09:01:37.254Z,27.40
2019-01-21T09:04:08.293Z,24.90
2019-01-21T09:06:42.939Z,20.63
2019-01-21T09:09:30.666Z,20.27
2019-01-21T09:12:03.286Z,21.10
2019-01-21T09:14:34.988Z,30.43
2019-01-21T09:17:07.746Z,27.30
2019-01-21T09:19:37.388Z,37.90
2019-01-21T09:22:06.648Z,46.37
2019-01-21T09:24:35.754Z,46.90
2019-01-21T09:27:09.396Z,30.43
2019-01-21T09:29:38.547Z,34.43
2019-01-21T09:32:14.182Z,29.03
2019-01-21T09:34:44.702Z,25.60
2019-01-21T09:37:16.570Z,22.67
2019-01-21T09:39:46.506Z,21.03
2019-01-21T09:42:15.596Z,27.67
2019-01-21T09:44:45.635Z,22.23
2019-01-21T09:47:14.231Z,37.43
2019-01-21T09:49:43.781Z,34.37
2019-01-21T09:52:12.435Z,53.43
2019-01-21T09:54:41.520Z,62.97
2019-01-21T09:57:10.585Z,29.67
2019-01-21T09:59:39.639Z,21.10
2019-01-21T10:02:08.740Z,37.43
2019-01-21T10:04:37.885Z,20.33
2019-01-21T10:07:10.544Z,18.00
2019-01-21T10:09:39.600Z,17.10
2019-01-21T10:12:25.251Z,18.60
2019-01-21T10:14:58.005Z,21.60
2019-01-21T10:17:27.943Z,18.97
2019-01-21T10:20:15.730Z,23.57
2019-01-21T10:22:51.659Z,22.97
2019-01-21T10:28:30.081Z,29.60
2019-01-21T10:30:59.955Z,20.00
2019-01-21T10:33:37.691Z,18.80
2019-01-21T10:36:23.263Z,20.00
2019-01-21T10:38:54.330Z,22.63
2019-01-21T10:41:25.190Z,20.03
2019-01-21T10:44:00.145Z,29.67
2019-01-21T10:46:34.999Z,22.17
2019-01-21T10:49:22.718Z,30.37
2019-01-21T10:51:54.301Z,18.10
2019-01-21T10:54:24.360Z,19.53
2019-01-21T10:56:54.978Z,14.50
2019-01-21T10:59:27.749Z,19.27
2019-01-21T11:02:00.494Z,25.93
2019-01-21T11:04:30.547Z,18.30
2019-01-21T11:07:02.474Z,26.10
2019-01-21T11:09:35.422Z,19.40
2019-01-21T11:12:15.185Z,18.50
2019-01-21T11:14:48.741Z,23.90
2019-01-21T11:17:21.600Z,19.50
2019-01-21T11:20:03.688Z,17.13
2019-01-21T11:22:26.443Z,16.43
2019-01-21T11:24:58.060Z,14.80
2019-01-21T11:27:33.645Z,15.03
2019-01-21T11:30:08.389Z,14.07
2019-01-21T11:32:37.436Z,15.03
2019-01-21T11:35:13.020Z,12.97
2019-01-21T11:37:46.766Z,16.33
2019-01-21T11:40:16.774Z,16.07
2019-01-21T11:42:57.655Z,13.33
2019-01-21T11:45:45.806Z,13.60
2019-01-21T11:48:17.782Z,16.90
2019-01-21T11:50:47.784Z,15.13
2019-01-21T11:53:19.275Z,13.97
2019-01-21T11:56:08.621Z,13.07
2019-01-21T11:58:43.537Z,18.63
2019-01-21T12:01:17.665Z,14.33
2019-01-21T12:03:47.573Z,14.37
2019-01-21T12:06:16.632Z,14.23
2019-01-21T12:08:53.293Z,13.87
2019-01-21T12:11:26.888Z,11.40
2019-01-21T12:14:03.463Z,14.33
2019-01-21T12:16:38.226Z,11.73
2019-01-21T12:19:08.253Z,11.60
2019-01-21T12:21:39.236Z,10.80
2019-01-21T12:24:08.274Z,11.70
2019-01-21T12:26:43.043Z,14.17
2019-01-21T12:29:13.598Z,15.47
2019-01-21T12:31:42.653Z,12.80
2019-01-21T12:34:16.465Z,27.03
2019-01-21T12:36:45.510Z,17.03
2019-01-21T12:39:18.528Z,23.43
2019-01-21T12:41:51.227Z,27.83
2019-01-21T12:44:39.558Z,14.50
2019-01-21T12:47:15.206Z,43.50
2019-01-21T12:49:49.802Z,87.67
2019-01-21T12:52:18.860Z,25.23
2019-01-21T12:54:47.954Z,25.10
2019-01-21T12:57:18.966Z,13.37
2019-01-21T12:59:48.829Z,13.47
2019-01-21T13:02:20.721Z,13.07
2019-01-21T13:04:50.715Z,11.77
2019-01-21T13:07:19.769Z,24.37
2019-01-21T13:09:49.820Z,19.00
2019-01-21T13:12:18.882Z,16.37
2019-01-21T13:14:49.753Z,16.17
2019-01-21T13:17:19.655Z,14.53
2019-01-21T13:19:50.650Z,16.23
2019-01-21T13:22:22.307Z,14.53
2019-01-21T13:25:03.118Z,19.33
2019-01-21T13:27:40.802Z,23.47
2019-01-21T13:30:11.351Z,29.67
2019-01-21T13:32:42.988Z,71.57
2019-01-21T13:35:17.995Z,47.40
2019-01-21T13:37:52.816Z,40.83
2019-01-21T13:40:27.726Z,32.10
2019-01-21T13:42:56.825Z,38.90
2019-01-21T13:45:44.078Z,39.37
2019-01-21T13:48:13.188Z,74.33
2019-01-21T13:50:43.010Z,48.10
2019-01-21T13:53:13.668Z,40.37
2019-01-21T13:55:43.678Z,48.67
2019-01-21T13:58:16.599Z,63.47
2019-01-21T14:00:49.460Z,89.27
2019-01-21T14:03:18.526Z,55.90
2019-01-21T14:08:50.551Z,41.43
2019-01-21T14:11:24.308Z,49.20
2019-01-21T14:13:54.316Z,56.43
2019-01-21T14:16:26.335Z,68.93
2019-01-21T14:18:57.308Z,45.33
2019-01-21T14:21:34.184Z,45.23
2019-01-21T14:24:05.661Z,43.80
2019-01-21T14:26:50.354Z,42.57
2019-01-21T14:29:21.930Z,49.07
2019-01-21T14:31:56.680Z,40.33
2019-01-21T14:34:31.452Z,41.93
2019-01-21T14:37:04.288Z,43.23
2019-01-21T14:39:34.284Z,42.03
2019-01-21T14:42:11.867Z,45.87
2019-01-21T14:44:47.584Z,50.67
2019-01-21T14:47:23.236Z,52.07
2019-01-21T14:49:54.159Z,44.93
2019-01-21T14:52:28.727Z,44.17
2019-01-21T14:55:06.461Z,41.10
2019-01-21T14:57:38.486Z,42.10
2019-01-21T15:00:10.348Z,45.27
2019-01-21T15:02:41.398Z,43.93
2019-01-21T15:05:16.353Z,44.40
2019-01-21T15:07:47.984Z,39.93
2019-01-21T15:10:17.857Z,38.03
2019-01-21T15:12:53.221Z,38.00
2019-01-21T15:15:41.576Z,36.07
2019-01-21T15:18:14.595Z,34.33
2019-01-21T15:20:44.652Z,41.50
2019-01-21T15:23:13.693Z,45.53
2019-01-21T15:25:56.445Z,41.73
2019-01-21T15:28:31.090Z,89.60
2019-01-21T15:31:05.908Z,82.50
2019-01-21T15:33:39.987Z,57.70
2019-01-21T15:36:14.978Z,53.47
2019-01-21T15:38:59.766Z,69.13
2019-01-21T15:41:28.858Z,58.50
2019-01-21T15:43:57.947Z,58.13
2019-01-21T15:46:32.768Z,42.53
2019-01-21T15:49:06.419Z,49.80
2019-01-21T15:51:38.203Z,81.47
2019-01-21T15:54:08.856Z,61.77
2019-01-21T15:56:51.977Z,45.83
2019-01-21T15:59:36.925Z,53.77
2019-01-21T16:02:06.817Z,43.23
2019-01-21T16:04:35.883Z,46.67
2019-01-21T16:07:05.727Z,47.43
2019-01-21T16:09:40.551Z,40.57
2019-01-21T16:12:14.508Z,54.10
2019-01-21T16:14:46.507Z,49.93
2019-01-21T16:17:15.562Z,45.90
2019-01-21T16:19:44.614Z,56.60
2019-01-21T16:22:21.311Z,125.23
2019-01-21T16:24:53.311Z,158.77
2019-01-21T16:27:25.111Z,178.30
2019-01-21T16:29:54.173Z,94.23
2019-01-21T16:32:23.246Z,64.40
2019-01-21T16:34:58.130Z,48.10
2019-01-21T16:37:29.029Z,48.37
2019-01-21T16:40:13.240Z,43.33
2019-01-21T16:42:42.306Z,42.70
2019-01-21T16:45:11.377Z,52.13
2019-01-21T16:47:40.510Z,51.80
2019-01-21T16:50:09.587Z,38.33
2019-01-21T16:52:38.661Z,31.37
2019-01-21T16:55:07.830Z,28.93
2019-01-21T16:57:36.858Z,29.50
2019-01-21T17:00:05.931Z,28.27
2019-01-21T17:02:35.011Z,27.03
2019-01-21T17:05:04.077Z,33.50
2019-01-21T17:07:33.157Z,43.07
2019-01-21T17:10:02.268Z,92.57
2019-01-21T17:12:31.330Z,135.40
2019-01-21T17:15:01.237Z,187.80
2019-01-21T17:17:30.329Z,204.53
2019-01-21T17:19:59.400Z,172.90
2019-01-21T17:22:28.485Z,133.57
2019-01-21T17:24:57.592Z,134.30
2019-01-21T17:27:26.679Z,142.87
2019-01-21T17:29:55.759Z,144.60
2019-01-21T17:32:24.946Z,150.43
2019-01-21T17:34:54.037Z,159.23
2019-01-21T17:37:23.129Z,155.83
2019-01-21T17:39:52.235Z,150.33
2019-01-21T17:42:21.317Z,137.67
2019-01-21T17:44:50.393Z,116.57
2019-01-21T17:47:19.496Z,108.00
2019-01-21T17:49:48.574Z,105.97
2019-01-21T17:52:17.652Z,105.17
2019-01-21T17:54:46.785Z,103.50
2019-01-21T17:57:15.869Z,101.67
2019-01-21T17:59:44.928Z,95.13
2019-01-21T18:02:14.034Z,79.97
2019-01-21T18:04:43.134Z,75.77
2019-01-21T18:07:12.181Z,90.17
2019-01-21T18:09:41.282Z,93.00
2019-01-21T18:12:10.366Z,67.67
2019-01-21T18:14:39.427Z,72.20
2019-01-21T18:17:08.558Z,71.37
2019-01-21T18:19:37.633Z,87.03
2019-01-21T18:22:06.716Z,71.40
2019-01-21T18:24:35.825Z,85.40
2019-01-21T18:27:04.896Z,91.20
2019-01-21T18:29:33.953Z,90.97
2019-01-21T18:32:03.058Z,86.50
2019-01-21T18:34:32.129Z,105.53
2019-01-21T18:37:01.216Z,90.50
2019-01-21T18:39:30.357Z,85.47
2019-01-21T18:41:59.422Z,78.83
2019-01-21T18:44:28.507Z,74.80
2019-01-21T18:46:57.597Z,82.33
2019-01-21T18:49:26.664Z,83.17
2019-01-21T18:51:55.747Z,86.80
2019-01-21T18:54:24.845Z,87.70
2019-01-21T18:56:53.920Z,81.33
2019-01-21T18:59:22.983Z,89.93
2019-01-21T19:01:52.143Z,92.77
2019-01-21T19:04:21.229Z,97.20
2019-01-21T19:06:50.312Z,97.67
2019-01-21T19:09:19.496Z,103.13
2019-01-21T19:11:48.541Z,106.83
2019-01-21T19:14:17.635Z,116.73
2019-01-21T19:16:46.740Z,124.10
2019-01-21T19:19:16.640Z,117.83
2019-01-21T19:21:45.718Z,148.93
2019-01-21T19:24:14.942Z,165.13
2019-01-21T19:29:47.929Z,336.13
2019-01-21T19:32:17.003Z,265.97
2019-01-21T19:34:46.073Z,212.90
2019-01-21T19:37:15.184Z,125.30
2019-01-21T19:39:44.260Z,110.93
2019-01-21T19:42:13.362Z,112.60
2019-01-21T19:44:42.496Z,210.73
2019-01-21T19:47:11.572Z,140.43
2019-01-21T19:49:40.646Z,87.47
2019-01-21T19:52:09.746Z,77.43
2019-01-21T19:54:38.837Z,90.23
2019-01-21T19:57:07.913Z,78.53
2019-01-21T19:59:37.010Z,54.50
2019-01-21T20:02:06.085Z,70.07
2019-01-21T20:04:35.162Z,76.03
2019-01-21T20:07:04.268Z,76.17
2019-01-21T20:09:33.352Z,94.30
2019-01-21T20:12:02.438Z,117.73
2019-01-21T20:14:31.577Z,265.70
2019-01-21T20:17:00.648Z,195.47
2019-01-21T20:19:29.720Z,169.13
2019-01-21T20:21:58.815Z,69.93
2019-01-21T20:24:27.887Z,78.10
2019-01-21T20:26:56.961Z,71.83
2019-01-21T20:29:26.095Z,80.40
2019-01-21T20:31:55.173Z,82.13
2019-01-21T20:34:24.255Z,101.10
2019-01-21T20:36:53.370Z,146.80
2019-01-21T20:39:22.872Z,124.60
2019-01-21T20:41:51.728Z,160.50
2019-01-21T20:44:20.844Z,174.90
2019-01-21T20:46:49.924Z,158.40
2019-01-21T20:49:19.063Z,320.43
2019-01-21T20:51:48.512Z,190.07
2019-01-21T20:54:17.593Z,138.33
2019-01-21T20:56:46.707Z,121.10
2019-01-21T20:59:15.840Z,82.27
2019-01-21T21:01:45.079Z,149.03
2019-01-21T21:04:14.189Z,145.70
2019-01-21T21:06:43.321Z,111.63
2019-01-21T21:09:12.393Z,98.97
2019-01-21T21:11:41.539Z,98.97
2019-01-21T21:14:11.102Z,81.70
2019-01-21T21:16:40.178Z,74.10
2019-01-21T21:19:09.262Z,64.30
2019-01-21T21:21:38.364Z,79.00
2019-01-21T21:24:07.440Z,70.67
2019-01-21T21:39:14.976Z,56.80
2019-01-21T21:41:44.041Z,53.47
2019-01-21T21:44:13.122Z,55.27
2019-01-21T21:46:42.216Z,62.57
2019-01-21T21:49:11.287Z,59.97
2019-01-21T21:51:40.404Z,70.43
2019-01-21T21:54:09.562Z,77.07
2019-01-21T21:56:38.673Z,77.03
2019-01-21T21:59:07.787Z,118.20
2019-01-21T22:01:40.064Z,156.73
2019-01-21T22:04:06.035Z,173.17
2019-01-21T22:06:35.155Z,155.27
2019-01-21T22:09:04.315Z,127.70
2019-01-21T22:11:33.425Z,130.10
2019-01-21T22:14:02.567Z,103.20
2019-01-21T22:16:31.740Z,109.83
2019-01-21T22:19:00.885Z,113.80
2019-01-21T22:21:29.995Z,112.17
2019-01-21T22:23:59.205Z,115.43
2019-01-21T22:26:28.295Z,118.33
2019-01-21T22:28:57.423Z,118.40
2019-01-21T22:31:26.561Z,120.03
2019-01-21T22:33:55.674Z,117.43
2019-01-21T22:36:24.789Z,122.13
2019-01-21T22:38:53.950Z,123.87
2019-01-21T22:41:23.056Z,130.27
2019-01-21T22:43:52.176Z,119.00
2019-01-21T22:46:23.313Z,115.83
2019-01-21T22:48:52.441Z,104.13
2019-01-21T22:51:21.589Z,107.43
2019-01-21T22:53:50.743Z,100.20
2019-01-21T22:56:19.860Z,95.93
2019-01-21T22:58:48.955Z,92.70
2019-01-21T23:01:18.112Z,99.80
2019-01-21T23:03:47.197Z,100.80
2019-01-21T23:06:16.289Z,97.07
2019-01-21T23:08:45.434Z,106.70
2019-01-21T23:11:14.575Z,107.70
2019-01-21T23:13:46.574Z,103.33
2019-01-21T23:16:15.689Z,103.60
2019-01-21T23:18:44.799Z,103.57
2019-01-21T23:21:13.913Z,105.07
2019-01-21T23:23:43.047Z,102.50
2019-01-21T23:26:12.164Z,92.53
2019-01-21T23:28:41.264Z,93.53
2019-01-21T23:31:10.384Z,94.27
2019-01-21T23:33:39.487Z,90.63
2019-01-21T23:36:08.595Z,87.77
2019-01-21T23:38:37.826Z,78.07
2019-01-21T23:41:06.920Z,71.63
2019-01-21T23:43:36.031Z,64.50
2019-01-21T23:52:16.461Z,41.97
2019-01-21T23:54:45.536Z,39.00
2019-01-21T23:57:14.600Z,38.23
2019-01-21T23:59:43.707Z,37.47
